createdAt,value
2022-08-26T00:01:52.907Z,22.60
2022-08-26T00:04:22.123Z,22.60
2022-08-26T00:06:49.026Z,22.60
2022-08-26T00:09:16.086Z,22.60
2022-08-26T00:11:44.714Z,22.60
2022-08-26T00:14:13.727Z,22.50
2022-08-26T00:16:48.145Z,22.50
2022-08-26T00:19:18.402Z,22.50
2022-08-26T00:21:46.359Z,22.50
2022-08-26T00:24:16.427Z,22.40
2022-08-26T00:26:44.290Z,22.40
2022-08-26T00:29:12.235Z,22.40
2022-08-26T00:31:39.904Z,22.40
2022-08-26T00:34:07.165Z,22.40
2022-08-26T00:36:37.227Z,22.40
2022-08-26T00:39:06.981Z,22.40
2022-08-26T00:41:34.981Z,22.40
2022-08-26T00:44:01.872Z,22.40
2022-08-26T00:46:32.211Z,22.40
2022-08-26T00:49:12.103Z,22.40
2022-08-26T00:51:55.280Z,22.40
2022-08-26T00:54:27.226Z,22.40
2022-08-26T00:57:04.838Z,22.50
2022-08-26T00:59:36.162Z,22.50
2022-08-26T01:02:06.517Z,22.50
2022-08-26T01:04:48.249Z,22.40
2022-08-26T01:07:21.767Z,22.40
2022-08-26T01:09:48.668Z,22.40
2022-08-26T01:12:16.079Z,22.30
2022-08-26T01:14:49.854Z,22.40
2022-08-26T01:17:17.271Z,22.40
2022-08-26T01:19:44.107Z,22.40
2022-08-26T01:22:28.823Z,22.40
2022-08-26T01:24:58.661Z,22.30
2022-08-26T01:27:32.603Z,22.30
2022-08-26T01:30:01.076Z,22.30
2022-08-26T01:32:29.384Z,22.30
2022-08-26T01:34:57.180Z,22.20
2022-08-26T01:37:29.176Z,22.20
2022-08-26T01:39:57.009Z,22.20
2022-08-26T01:42:25.872Z,22.20
2022-08-26T01:45:04.803Z,22.20
2022-08-26T01:47:33.546Z,22.10
2022-08-26T01:50:03.117Z,22.10
2022-08-26T01:52:34.233Z,22.10
2022-08-26T01:55:01.930Z,22.10
2022-08-26T01:57:29.532Z,22.10
2022-08-26T02:00:00.950Z,22.10
2022-08-26T02:02:28.043Z,22.10
2022-08-26T02:05:00.434Z,22.10
2022-08-26T02:07:27.940Z,22.20
2022-08-26T02:09:55.478Z,22.10
2022-08-26T02:12:22.642Z,22.10
2022-08-26T02:14:56.308Z,22.10
2022-08-26T02:17:42.641Z,22.10
2022-08-26T02:20:14.964Z,22.10
2022-08-26T02:22:42.817Z,22.00
2022-08-26T02:25:12.011Z,22.00
2022-08-26T02:27:38.931Z,22.00
2022-08-26T02:30:17.275Z,21.90
2022-08-26T02:32:44.421Z,21.90
2022-08-26T02:35:13.561Z,21.90
2022-08-26T02:37:45.298Z,21.80
2022-08-26T02:40:14.873Z,21.80
2022-08-26T02:42:41.952Z,21.80
2022-08-26T02:45:10.861Z,21.70
2022-08-26T02:47:38.401Z,21.70
2022-08-26T02:50:06.498Z,21.70
2022-08-26T02:52:33.346Z,21.70
2022-08-26T02:55:00.716Z,21.70
2022-08-26T02:57:29.192Z,21.70
2022-08-26T02:59:56.138Z,21.70
2022-08-26T03:02:23.153Z,21.70
2022-08-26T03:04:57.936Z,21.70
2022-08-26T03:07:29.840Z,21.70
2022-08-26T03:09:57.614Z,21.70
2022-08-26T03:12:25.623Z,21.70
2022-08-26T03:14:53.009Z,21.70
2022-08-26T03:17:21.056Z,21.70
2022-08-26T03:19:51.742Z,21.70
2022-08-26T03:22:21.187Z,21.70
2022-08-26T03:24:48.429Z,21.60
2022-08-26T03:27:15.775Z,21.60
2022-08-26T03:30:02.823Z,21.60
2022-08-26T03:32:29.623Z,21.60
2022-08-26T03:34:57.509Z,21.60
2022-08-26T03:37:25.088Z,21.60
2022-08-26T03:39:52.786Z,21.60
2022-08-26T03:42:21.540Z,21.60
2022-08-26T03:44:48.878Z,21.60
2022-08-26T03:47:15.827Z,21.60
2022-08-26T03:49:42.707Z,21.60
2022-08-26T03:52:10.450Z,21.60
2022-08-26T03:54:38.565Z,21.60
2022-08-26T03:57:05.467Z,21.60
2022-08-26T03:59:32.655Z,21.60
2022-08-26T04:01:59.667Z,21.60
2022-08-26T04:04:26.632Z,21.50
2022-08-26T04:06:58.337Z,21.50
2022-08-26T04:09:26.896Z,21.50
2022-08-26T04:11:54.382Z,21.50
2022-08-26T04:14:24.222Z,21.50
2022-08-26T04:16:52.210Z,21.50
2022-08-26T04:19:20.842Z,21.50
2022-08-26T04:21:51.306Z,21.50
2022-08-26T04:24:19.049Z,21.50
2022-08-26T04:26:46.245Z,21.50
2022-08-26T04:29:19.677Z,21.50
2022-08-26T04:31:48.196Z,21.50
2022-08-26T04:34:15.692Z,21.40
2022-08-26T04:36:43.346Z,21.40
2022-08-26T04:39:18.756Z,21.40
2022-08-26T04:41:48.369Z,21.40
2022-08-26T04:44:16.451Z,21.30
2022-08-26T04:46:44.469Z,21.30
2022-08-26T04:49:12.175Z,21.30
2022-08-26T04:51:39.867Z,21.30
2022-08-26T04:54:07.299Z,21.20
2022-08-26T04:56:40.036Z,21.30
2022-08-26T04:59:14.949Z,21.20
2022-08-26T05:01:46.803Z,21.20
2022-08-26T05:04:18.810Z,21.20
2022-08-26T05:06:49.758Z,21.20
2022-08-26T05:09:18.526Z,21.20
2022-08-26T05:11:48.487Z,21.20
2022-08-26T05:14:18.963Z,21.20
2022-08-26T05:16:45.887Z,21.10
2022-08-26T05:19:18.713Z,21.10
2022-08-26T05:21:47.722Z,21.10
2022-08-26T05:24:14.966Z,21.10
2022-08-26T05:26:42.292Z,21.10
2022-08-26T05:29:11.713Z,21.10
2022-08-26T05:31:38.483Z,21.10
2022-08-26T05:34:05.937Z,21.10
2022-08-26T05:36:35.484Z,21.20
2022-08-26T05:39:03.920Z,21.20
2022-08-26T05:41:36.586Z,21.20
2022-08-26T05:44:06.619Z,21.20
2022-08-26T05:46:35.268Z,21.20
2022-08-26T05:49:03.744Z,21.30
2022-08-26T05:51:30.991Z,21.40
2022-08-26T05:53:58.642Z,21.40
2022-08-26T05:56:27.499Z,21.40
2022-08-26T05:58:55.508Z,21.40
2022-08-26T06:01:27.904Z,21.50
2022-08-26T06:04:00.587Z,21.50
2022-08-26T06:06:35.923Z,21.50
2022-08-26T06:09:05.283Z,21.60
2022-08-26T06:11:33.308Z,21.70
2022-08-26T06:14:04.369Z,21.70
2022-08-26T06:16:33.419Z,21.70
2022-08-26T06:19:02.965Z,21.80
2022-08-26T06:21:32.901Z,21.80
2022-08-26T06:24:26.999Z,21.90
2022-08-26T06:26:56.975Z,22.00
2022-08-26T06:29:27.623Z,22.10
2022-08-26T06:31:56.149Z,22.20
2022-08-26T06:34:29.929Z,22.30
2022-08-26T06:36:59.610Z,22.40
2022-08-26T06:39:26.428Z,22.50
2022-08-26T06:41:53.216Z,22.50
2022-08-26T06:44:21.011Z,22.50
2022-08-26T06:46:50.527Z,22.50
2022-08-26T06:49:17.786Z,22.50
2022-08-26T06:51:44.941Z,22.50
2022-08-26T06:54:11.761Z,22.60
2022-08-26T06:56:41.747Z,22.60
2022-08-26T06:59:10.254Z,22.60
2022-08-26T07:01:42.952Z,22.70
2022-08-26T07:04:11.596Z,22.70
2022-08-26T07:06:40.733Z,22.70
2022-08-26T07:09:10.164Z,22.60
2022-08-26T07:11:38.871Z,22.60
2022-08-26T07:14:07.128Z,22.50
2022-08-26T07:16:35.745Z,22.50
2022-08-26T07:19:11.261Z,22.50
2022-08-26T07:21:40.274Z,22.40
2022-08-26T07:24:08.106Z,22.40
2022-08-26T07:26:34.961Z,22.40
2022-08-26T07:29:03.060Z,22.40
2022-08-26T07:31:39.130Z,22.30
2022-08-26T07:34:07.593Z,22.30
2022-08-26T07:36:34.817Z,22.40
2022-08-26T07:39:01.869Z,22.40
2022-08-26T07:43:56.989Z,22.50
2022-08-26T07:46:27.549Z,22.50
2022-08-26T07:48:58.287Z,22.60
2022-08-26T07:51:26.451Z,22.70
2022-08-26T07:53:54.255Z,22.70
2022-08-26T07:56:23.006Z,22.70
2022-08-26T07:58:51.799Z,22.70
2022-08-26T08:01:26.963Z,22.80
2022-08-26T08:03:55.275Z,22.80
2022-08-26T08:06:27.001Z,22.90
2022-08-26T08:08:54.339Z,22.90
2022-08-26T08:11:22.002Z,22.90
2022-08-26T08:13:49.883Z,23.00
2022-08-26T08:16:24.554Z,23.00
2022-08-26T08:18:51.526Z,23.00
2022-08-26T08:21:21.803Z,23.00
2022-08-26T08:23:51.819Z,23.00
2022-08-26T08:26:18.876Z,23.00
2022-08-26T08:28:47.930Z,23.00
2022-08-26T08:31:57.016Z,23.10
2022-08-26T08:34:18.154Z,23.20
2022-08-26T08:36:46.372Z,23.30
2022-08-26T08:39:13.710Z,23.30
2022-08-26T08:42:11.901Z,23.30
2022-08-26T08:44:44.286Z,23.20
2022-08-26T08:47:35.783Z,23.20
2022-08-26T08:50:24.207Z,23.30
2022-08-26T08:53:04.397Z,23.30
2022-08-26T08:55:50.794Z,23.40
2022-08-26T08:58:21.021Z,23.40
2022-08-26T09:00:57.612Z,23.50
2022-08-26T09:03:47.286Z,23.50
2022-08-26T09:06:18.709Z,23.50
2022-08-26T09:08:50.034Z,23.50
2022-08-26T09:11:19.691Z,23.50
2022-08-26T09:13:52.795Z,23.50
2022-08-26T09:16:40.913Z,23.60
2022-08-26T09:19:36.019Z,23.50
2022-08-26T09:22:08.779Z,23.50
2022-08-26T09:24:42.114Z,23.50
2022-08-26T09:27:46.713Z,23.40
2022-08-26T09:30:31.443Z,23.40
2022-08-26T09:33:10.770Z,23.30
2022-08-26T09:35:46.603Z,23.20
2022-08-26T09:38:32.869Z,23.20
2022-08-26T09:41:19.934Z,23.20
2022-08-26T09:44:06.516Z,23.10
2022-08-26T09:46:33.736Z,23.10
2022-08-26T09:49:21.487Z,23.00
2022-08-26T09:51:50.085Z,22.90
2022-08-26T09:54:30.395Z,22.90
2022-08-26T09:57:25.127Z,23.00
2022-08-26T09:59:52.225Z,23.20
2022-08-26T10:02:36.234Z,23.30
2022-08-26T10:05:08.949Z,23.40
2022-08-26T10:07:41.128Z,23.50
2022-08-26T10:10:24.957Z,23.70
2022-08-26T10:13:03.409Z,23.80
2022-08-26T10:15:50.012Z,23.90
2022-08-26T10:18:25.747Z,23.90
2022-08-26T10:21:10.772Z,23.90
2022-08-26T10:23:42.628Z,23.90
2022-08-26T10:26:32.347Z,23.90
2022-08-26T10:29:10.045Z,24.00
2022-08-26T10:31:40.574Z,24.10
2022-08-26T10:34:09.475Z,24.20
2022-08-26T10:37:15.707Z,24.30
2022-08-26T10:40:07.837Z,24.30
2022-08-26T10:42:43.979Z,24.30
2022-08-26T10:45:22.045Z,24.40
2022-08-26T10:47:55.086Z,24.40
2022-08-26T10:50:25.804Z,24.50
2022-08-26T10:52:59.432Z,24.60
2022-08-26T10:55:40.882Z,24.50
2022-08-26T10:58:28.887Z,24.30
2022-08-26T11:01:35.611Z,24.20
2022-08-26T11:04:35.007Z,24.20
2022-08-26T11:07:36.686Z,24.30
2022-08-26T11:10:06.784Z,24.50
2022-08-26T11:12:36.261Z,24.70
2022-08-26T11:15:07.119Z,24.90
2022-08-26T11:17:44.903Z,25.10
2022-08-26T11:20:29.980Z,25.20
2022-08-26T11:23:22.685Z,25.30
2022-08-26T11:25:56.906Z,25.40
2022-08-26T11:28:37.396Z,25.50
2022-08-26T11:31:09.586Z,25.40
2022-08-26T11:33:45.261Z,25.30
2022-08-26T11:36:40.121Z,25.10
2022-08-26T11:39:21.118Z,24.90
2022-08-26T11:41:52.688Z,24.80
2022-08-26T11:44:27.077Z,24.70
2022-08-26T11:47:00.845Z,24.60
2022-08-26T11:49:29.152Z,24.50
2022-08-26T11:52:22.195Z,24.50
2022-08-26T11:55:14.272Z,24.50
2022-08-26T11:57:45.442Z,24.50
2022-08-26T12:00:23.509Z,24.60
2022-08-26T12:02:52.510Z,24.60
2022-08-26T12:05:30.808Z,24.70
2022-08-26T12:08:03.067Z,24.70
2022-08-26T12:10:33.586Z,24.60
2022-08-26T12:13:02.615Z,24.60
2022-08-26T12:15:31.618Z,24.70
2022-08-26T12:18:15.801Z,24.70
2022-08-26T12:20:48.094Z,24.70
2022-08-26T12:23:40.956Z,24.60
2022-08-26T12:26:31.063Z,24.60
2022-08-26T12:29:09.951Z,24.60
2022-08-26T12:31:47.915Z,24.40
2022-08-26T12:34:18.102Z,24.30
2022-08-26T12:36:50.829Z,24.30
2022-08-26T12:39:29.657Z,24.30
2022-08-26T12:42:15.591Z,24.30
2022-08-26T12:44:53.955Z,24.30
2022-08-26T12:47:25.790Z,24.20
2022-08-26T12:50:09.184Z,24.20
2022-08-26T12:52:55.149Z,24.20
2022-08-26T12:55:35.479Z,24.20
2022-08-26T12:58:31.878Z,24.20
2022-08-26T13:01:20.233Z,24.10
2022-08-26T13:03:47.742Z,23.90
2022-08-26T13:06:23.489Z,23.90
2022-08-26T13:08:57.947Z,23.90
2022-08-26T13:11:24.735Z,23.90
2022-08-26T13:13:57.363Z,23.90
2022-08-26T13:16:25.540Z,23.90
2022-08-26T13:18:58.885Z,23.90
2022-08-26T13:21:37.829Z,23.90
2022-08-26T13:24:13.271Z,23.90
2022-08-26T13:26:41.580Z,24.00
2022-08-26T13:29:10.462Z,23.90
2022-08-26T13:31:40.173Z,23.90
2022-08-26T13:34:09.280Z,23.80
2022-08-26T13:36:36.090Z,23.70
2022-08-26T13:39:03.394Z,23.70
2022-08-26T13:41:31.889Z,23.60
2022-08-26T13:43:59.531Z,23.60
2022-08-26T13:46:27.951Z,23.60
2022-08-26T13:48:55.867Z,23.60
2022-08-26T13:51:23.292Z,23.70
2022-08-26T13:53:51.129Z,23.70
2022-08-26T13:56:18.820Z,23.70
2022-08-26T13:58:46.634Z,23.70
2022-08-26T14:01:16.336Z,23.70
2022-08-26T14:03:43.795Z,23.70
2022-08-26T14:06:10.735Z,23.70
2022-08-26T14:08:38.527Z,23.70
2022-08-26T14:11:06.009Z,23.60
2022-08-26T14:13:32.793Z,23.60
2022-08-26T14:16:01.439Z,23.50
2022-08-26T14:18:39.706Z,23.40
2022-08-26T14:21:11.338Z,23.30
2022-08-26T14:23:38.176Z,23.30
2022-08-26T14:26:08.158Z,23.20
2022-08-26T14:28:35.558Z,23.30
2022-08-26T14:31:03.237Z,23.30
2022-08-26T14:33:33.052Z,23.40
2022-08-26T14:36:19.057Z,23.50
2022-08-26T14:38:46.769Z,23.60
2022-08-26T14:41:17.028Z,23.80
2022-08-26T14:43:54.427Z,24.00
2022-08-26T14:46:21.248Z,24.20
2022-08-26T14:48:47.985Z,24.30
2022-08-26T14:51:14.719Z,24.50
2022-08-26T14:53:59.842Z,24.60
2022-08-26T14:56:28.167Z,24.70
2022-08-26T14:58:54.909Z,24.60
2022-08-26T15:01:22.055Z,24.60
2022-08-26T15:03:50.680Z,24.60
2022-08-26T15:06:17.844Z,24.60
2022-08-26T15:08:44.645Z,24.70
2022-08-26T15:11:12.107Z,24.70
2022-08-26T15:13:38.897Z,24.70
2022-08-26T15:16:06.100Z,24.80
2022-08-26T15:18:32.870Z,24.90
2022-08-26T15:20:59.623Z,24.90
2022-08-26T15:23:26.915Z,24.90
2022-08-26T15:25:54.719Z,24.80
2022-08-26T15:28:21.568Z,24.70
2022-08-26T15:30:49.545Z,24.60
2022-08-26T15:33:16.490Z,24.60
2022-08-26T15:35:44.078Z,24.60
2022-08-26T15:38:11.305Z,24.50
2022-08-26T15:40:38.428Z,24.40
2022-08-26T15:43:25.768Z,24.30
2022-08-26T15:45:56.864Z,24.20
2022-08-26T15:48:24.503Z,24.20
2022-08-26T15:50:57.470Z,24.10
2022-08-26T15:53:24.931Z,24.10
2022-08-26T15:55:54.992Z,24.10
2022-08-26T15:58:24.966Z,24.20
2022-08-26T16:00:54.996Z,24.50
2022-08-26T16:03:22.636Z,24.70
2022-08-26T16:05:49.887Z,25.00
2022-08-26T16:08:17.089Z,25.40
2022-08-26T16:10:50.078Z,25.60
2022-08-26T16:13:19.557Z,25.70
2022-08-26T16:15:47.803Z,25.80
2022-08-26T16:18:16.097Z,25.80
2022-08-26T16:21:12.713Z,25.70
2022-08-26T16:23:39.242Z,25.80
2022-08-26T16:26:10.909Z,26.10
2022-08-26T16:28:38.317Z,26.40
2022-08-26T16:31:06.592Z,26.50
2022-08-26T16:33:33.414Z,26.40
2022-08-26T16:36:00.289Z,26.20
2022-08-26T16:38:27.045Z,26.00
2022-08-26T16:40:54.089Z,25.80
2022-08-26T16:43:21.847Z,25.70
2022-08-26T16:45:49.425Z,25.50
2022-08-26T16:48:17.121Z,25.20
2022-08-26T16:50:44.242Z,25.00
2022-08-26T16:55:48.148Z,24.70
2022-08-26T16:58:15.211Z,24.60
2022-08-26T17:00:42.433Z,24.60
2022-08-26T17:03:09.911Z,24.50
2022-08-26T17:05:37.655Z,24.40
2022-08-26T17:08:05.272Z,24.30
2022-08-26T17:10:32.774Z,24.20
2022-08-26T17:13:00.269Z,24.10
2022-08-26T17:15:27.883Z,24.00
2022-08-26T17:17:55.516Z,23.90
2022-08-26T17:20:24.188Z,23.80
2022-08-26T17:22:52.667Z,23.70
2022-08-26T17:25:29.886Z,23.60
2022-08-26T17:30:25.835Z,23.40
2022-08-26T17:32:53.953Z,23.30
2022-08-26T17:35:21.439Z,23.30
2022-08-26T17:37:48.403Z,23.20
2022-08-26T17:40:18.686Z,23.20
2022-08-26T17:42:46.067Z,23.20
2022-08-26T17:45:13.111Z,23.20
2022-08-26T17:47:41.075Z,23.10
2022-08-26T17:50:11.302Z,23.10
2022-08-26T17:52:39.441Z,23.00
2022-08-26T17:55:08.796Z,22.90
2022-08-26T17:57:40.561Z,22.80
2022-08-26T18:00:13.968Z,22.80
2022-08-26T18:02:41.359Z,22.60
2022-08-26T18:05:11.586Z,22.60
2022-08-26T18:07:43.738Z,22.60
2022-08-26T18:10:15.368Z,22.60
2022-08-26T18:12:42.536Z,22.50
2022-08-26T18:15:10.563Z,22.50
2022-08-26T18:17:39.270Z,22.50
2022-08-26T18:20:11.571Z,22.50
2022-08-26T18:22:38.431Z,22.40
2022-08-26T18:25:06.851Z,22.30
2022-08-26T18:27:35.989Z,22.20
2022-08-26T18:30:13.410Z,22.20
2022-08-26T18:32:42.795Z,22.10
2022-08-26T18:35:10.329Z,22.10
2022-08-26T18:37:37.571Z,22.00
2022-08-26T18:40:07.293Z,22.00
2022-08-26T18:42:34.546Z,22.00
2022-08-26T18:45:01.514Z,21.90
2022-08-26T18:47:29.907Z,21.90
2022-08-26T18:49:56.797Z,21.80
2022-08-26T18:52:24.091Z,21.80
2022-08-26T18:54:51.088Z,21.70
2022-08-26T18:57:17.885Z,21.70
2022-08-26T18:59:44.825Z,21.70
2022-08-26T19:02:11.799Z,21.60
2022-08-26T19:04:39.077Z,21.50
2022-08-26T19:07:06.085Z,21.40
2022-08-26T19:09:33.696Z,21.40
2022-08-26T19:12:01.396Z,21.40
2022-08-26T19:14:28.810Z,21.30
2022-08-26T19:16:55.748Z,21.30
2022-08-26T19:19:25.812Z,21.20
2022-08-26T19:21:53.320Z,21.20
2022-08-26T19:24:20.874Z,21.20
2022-08-26T19:26:57.486Z,21.20
2022-08-26T19:29:28.607Z,21.20
2022-08-26T19:31:56.464Z,21.10
2022-08-26T19:34:24.047Z,21.10
2022-08-26T19:36:53.148Z,21.00
2022-08-26T19:39:21.099Z,20.90
2022-08-26T19:41:47.957Z,20.90
2022-08-26T19:44:40.016Z,20.80
2022-08-26T19:47:08.704Z,20.80
2022-08-26T19:49:35.971Z,20.80
2022-08-26T19:52:03.402Z,20.70
2022-08-26T19:54:30.603Z,20.70
2022-08-26T19:56:57.430Z,20.60
2022-08-26T19:59:24.449Z,20.60
2022-08-26T20:02:01.340Z,20.50
2022-08-26T20:04:32.859Z,20.50
2022-08-26T20:07:01.098Z,20.50
2022-08-26T20:09:29.772Z,20.40
2022-08-26T20:11:57.192Z,20.30
2022-08-26T20:14:25.509Z,20.30
2022-08-26T20:16:52.490Z,20.20
2022-08-26T20:19:38.234Z,20.10
2022-08-26T20:22:05.803Z,20.00
2022-08-26T20:24:33.948Z,20.00
2022-08-26T20:27:06.860Z,19.90
2022-08-26T20:29:35.390Z,19.90
2022-08-26T20:32:03.096Z,19.80
2022-08-26T20:34:30.116Z,19.80
2022-08-26T20:36:56.943Z,19.70
2022-08-26T20:39:23.770Z,19.70
2022-08-26T20:41:51.240Z,19.70
2022-08-26T20:44:18.155Z,19.60
2022-08-26T20:46:45.341Z,19.60
2022-08-26T20:49:13.338Z,19.50
2022-08-26T20:51:43.113Z,19.50
2022-08-26T20:54:11.973Z,19.40
2022-08-26T20:56:39.361Z,19.40
2022-08-26T20:59:07.457Z,19.30
2022-08-26T21:01:37.029Z,19.30
2022-08-26T21:04:12.376Z,19.30
2022-08-26T21:06:40.038Z,19.20
2022-08-26T21:09:11.803Z,19.20
2022-08-26T21:11:39.585Z,19.20
2022-08-26T21:14:16.801Z,19.20
2022-08-26T21:16:45.137Z,19.10
2022-08-26T21:19:14.687Z,19.10
2022-08-26T21:21:42.522Z,19.10
2022-08-26T21:24:09.463Z,19.10
2022-08-26T21:26:36.624Z,19.00
2022-08-26T21:29:03.794Z,19.00
2022-08-26T21:31:31.964Z,19.00
2022-08-26T21:33:59.524Z,18.90
2022-08-26T21:36:29.260Z,18.90
2022-08-26T21:38:58.234Z,18.80
2022-08-26T21:41:25.804Z,18.80
2022-08-26T21:43:55.848Z,18.80
2022-08-26T21:46:23.788Z,18.70
2022-08-26T21:49:02.113Z,18.70
2022-08-26T21:51:31.788Z,18.70
2022-08-26T21:53:59.698Z,18.60
2022-08-26T21:56:29.180Z,18.60
2022-08-26T21:58:56.888Z,18.60
2022-08-26T22:01:25.726Z,18.60
2022-08-26T22:03:53.845Z,18.50
2022-08-26T22:06:23.531Z,18.50
2022-08-26T22:08:50.834Z,18.50
2022-08-26T22:11:18.719Z,18.50
2022-08-26T22:13:47.035Z,18.40
2022-08-26T22:16:15.185Z,18.40
2022-08-26T22:18:44.847Z,18.40
2022-08-26T22:21:15.431Z,18.30
2022-08-26T22:23:42.232Z,18.30
2022-08-26T22:26:11.192Z,18.30
2022-08-26T22:28:39.217Z,18.20
2022-08-26T22:31:11.468Z,18.20
2022-08-26T22:33:40.223Z,18.20
2022-08-26T22:36:07.064Z,18.20
2022-08-26T22:38:34.295Z,18.20
2022-08-26T22:41:03.367Z,18.20
2022-08-26T22:43:32.182Z,18.10
2022-08-26T22:45:58.971Z,18.10
2022-08-26T22:48:27.162Z,18.10
2022-08-26T22:50:59.686Z,18.10
2022-08-26T22:53:27.108Z,18.10
2022-08-26T22:55:54.346Z,18.10
2022-08-26T22:58:28.053Z,18.00
2022-08-26T23:00:59.341Z,18.00
2022-08-26T23:03:27.398Z,18.00
2022-08-26T23:05:55.571Z,18.00
2022-08-26T23:08:24.665Z,18.00
2022-08-26T23:10:52.000Z,18.00
2022-08-26T23:13:19.412Z,18.00
2022-08-26T23:15:46.626Z,18.00
2022-08-26T23:18:15.040Z,18.00
2022-08-26T23:20:42.631Z,18.00
2022-08-26T23:23:09.749Z,18.00
2022-08-26T23:25:36.580Z,18.10
2022-08-26T23:28:03.911Z,18.10
2022-08-26T23:30:32.792Z,18.10
2022-08-26T23:32:59.676Z,18.20
2022-08-26T23:35:27.114Z,18.20
2022-08-26T23:37:54.152Z,18.20
2022-08-26T23:40:28.813Z,18.30
2022-08-26T23:42:57.038Z,18.30
2022-08-26T23:45:24.891Z,18.40
2022-08-26T23:47:52.963Z,18.40
2022-08-26T23:50:22.652Z,18.50
2022-08-26T23:53:08.759Z,18.50
2022-08-26T23:55:39.362Z,18.50
2022-08-26T23:58:07.016Z,18.50
